createdAt,value
2023-02-03T00:05:43.626Z,3624.07081
2023-02-03T00:20:45.450Z,3661.20268
2023-02-03T00:35:47.340Z,3636.36413
2023-02-03T00:50:49.275Z,3686.38289
2023-02-03T01:05:51.150Z,3663.70521
2023-02-03T01:20:53.016Z,3706.77781
2023-02-03T01:35:54.949Z,3663.70521
2023-02-03T01:50:56.885Z,3646.259
2023-02-03T02:05:58.802Z,3633.8988
2023-02-03T02:21:17.401Z,3686.38289
2023-02-03T02:36:19.412Z,3633.8988
2023-02-03T02:51:21.356Z,3663.70521
2023-02-03T03:07:44.712Z,3668.72055
2023-02-03T03:22:46.703Z,3681.31917
2023-02-03T03:37:48.607Z,3671.23337
2023-02-03T03:52:50.499Z,3681.31917
2023-02-03T04:07:52.466Z,3683.84929
2023-02-03T04:22:54.429Z,3688.91997
2023-02-03T04:37:56.755Z,3711.91185
2023-02-03T04:52:58.662Z,3676.26935
2023-02-03T05:08:00.583Z,3691.46055
2023-02-03T05:23:02.534Z,3671.23337
2023-02-03T05:38:04.450Z,3696.55222
2023-02-03T05:53:06.529Z,3566.20142
2023-02-03T06:08:08.489Z,2994.41389
2023-02-03T06:23:10.438Z,974.54595
2023-02-03T06:38:12.368Z,632.04079
2023-02-03T06:53:14.322Z,933.14813
2023-02-03T07:08:16.239Z,1332.00846
2023-02-03T07:23:18.157Z,1430.09657
2023-02-03T07:38:20.079Z,1474.14793
2023-02-03T07:53:21.914Z,1512.41587
2023-02-03T08:08:23.780Z,1539.3457
2023-02-03T08:23:25.635Z,1593.34175
2023-02-03T08:38:27.542Z,1656.36638
2023-02-03T08:53:29.521Z,1704.8351
2023-02-03T09:08:31.468Z,1796.24714
2023-02-03T09:23:33.388Z,1863.70008
2023-02-03T09:38:35.350Z,1933.62243
2023-02-03T09:53:37.290Z,2000.0005
2023-02-03T10:08:39.267Z,2048.93016
2023-02-03T10:23:41.234Z,2106.91874
2023-02-03T10:38:43.152Z,2135.45867
2023-02-03T10:53:45.099Z,2185.97114
2023-02-03T11:08:47.096Z,2194.9227
2023-02-03T11:23:49.192Z,2211.22163
2023-02-03T11:38:51.112Z,2222.22273
2023-02-03T11:53:57.271Z,2209.39869
2023-02-03T12:08:59.919Z,2224.0669
2023-02-03T12:24:01.876Z,2100.31398
2023-02-03T12:39:03.932Z,1902.0587
2023-02-03T12:54:05.855Z,1748.20663
2023-02-03T13:09:07.760Z,1618.35798
2023-02-03T13:24:09.654Z,1601.91322
2023-02-03T13:39:11.578Z,1552.72355
2023-02-03T13:54:13.545Z,1549.13344
2023-02-03T14:09:15.474Z,1513.26983
2023-02-03T14:24:17.368Z,663.36093
2023-02-03T14:39:19.287Z,667.32919
2023-02-03T14:54:21.309Z,703.81824
2023-02-03T15:09:23.593Z,384.23165
2023-02-03T15:24:25.549Z,438.04413
2023-02-03T15:39:27.477Z,486.43267
2023-02-03T15:54:29.383Z,549.08226
2023-02-03T16:09:31.324Z,603.54484
2023-02-03T16:24:33.358Z,743.70125
2023-02-03T16:39:35.263Z,1079.77488
2023-02-03T16:54:37.186Z,697.21995
2023-02-03T17:09:39.155Z,1133.67225
2023-02-03T17:24:41.198Z,965.41837
2023-02-03T17:56:54.700Z,1219.29077
2023-02-03T18:11:56.497Z,1414.99523
2023-02-03T18:26:58.435Z,1503.92866
2023-02-03T18:42:00.375Z,1502.24264
2023-02-03T18:57:02.571Z,1715.74953
2023-02-03T19:12:04.510Z,1795.04403
2023-02-03T19:27:06.451Z,1810.81131
2023-02-03T19:42:08.381Z,1957.63381
2023-02-03T19:57:10.329Z,2005.98852
2023-02-03T20:12:12.246Z,2022.64201
2023-02-03T20:27:14.197Z,2015.03809
2023-02-03T20:42:16.106Z,2198.52388
2023-02-03T20:57:18.000Z,2269.26384
2023-02-03T21:12:20.033Z,2302.40601
2023-02-03T21:27:21.974Z,2334.49528
2023-02-03T21:42:23.906Z,2423.14699
2023-02-03T21:57:25.908Z,2677.3232
2023-02-03T22:12:27.831Z,2726.34844
2023-02-03T22:27:29.786Z,2650.84127
2023-02-03T22:42:31.727Z,2549.95294
2023-02-03T22:57:33.628Z,2340.61186
2023-02-03T23:12:35.541Z,2405.74557
2023-02-03T23:27:37.417Z,2564.59382
2023-02-03T23:42:39.606Z,2591.87673
2023-02-03T23:57:41.599Z,2658.73068
